Time;durP1;ratioP1;P1;durP2;ratioP2;P2;SDS_P1;SDS_P2;PMS_P1;PMS_P2;Temp;Humidity;BMP_temperature;BMP_pressure;BME280_temperature;BME280_humidity;BME280_pressure;Samples;Min_cycle;Max_cycle;Signal;HPM_P1;HPM_P2
2024/03/14 00:00:56;;;;;;;5.95;2.28;;;10.90;99.90;;;;;;5036158;28;20059;-64
2024/03/14 00:03:23;;;;;;;9.10;2.25;;;10.90;99.90;;;;;;5035887;28;20041;-64
2024/03/14 00:05:53;;;;;;;7.85;2.60;;;10.90;99.90;;;;;;5035796;28;20049;-65
2024/03/14 00:08:20;;;;;;;7.05;2.00;;;10.90;99.90;;;;;;5036407;28;20106;-64
2024/03/14 00:10:47;;;;;;;6.80;2.38;;;10.90;99.90;;;;;;5035863;28;20049;-64
2024/03/14 00:13:16;;;;;;;7.22;2.25;;;10.90;99.90;;;;;;5036247;28;20044;-64
2024/03/14 00:15:43;;;;;;;8.68;2.22;;;10.80;99.90;;;;;;5035732;28;20445;-64
2024/03/14 00:18:10;;;;;;;9.40;2.10;;;10.80;99.90;;;;;;5036026;28;20045;-64
2024/03/14 00:20:39;;;;;;;8.02;1.92;;;10.80;99.90;;;;;;5035867;28;20049;-64
2024/03/14 00:23:06;;;;;;;8.57;1.90;;;10.80;99.90;;;;;;5036006;28;20052;-64
2024/03/14 00:25:32;;;;;;;7.80;2.50;;;10.80;99.90;;;;;;5035897;28;20107;-64
2024/03/14 00:28:00;;;;;;;8.10;2.10;;;10.80;99.90;;;;;;5035359;28;20044;-65
2024/03/14 00:30:29;;;;;;;8.68;2.67;;;10.80;99.90;;;;;;5036221;28;20045;-64
2024/03/14 00:32:58;;;;;;;6.03;1.73;;;10.80;99.90;;;;;;5036121;28;20046;-64
2024/03/14 00:35:25;;;;;;;7.85;2.35;;;10.80;99.90;;;;;;5036236;28;20042;-64
2024/03/14 00:37:51;;;;;;;6.55;1.80;;;10.80;99.90;;;;;;5035769;28;20041;-64
2024/03/14 00:40:18;;;;;;;11.52;2.38;;;10.80;99.90;;;;;;5035698;28;20483;-64
2024/03/14 00:42:45;;;;;;;6.90;2.15;;;10.80;99.90;;;;;;5035883;28;20053;-62
2024/03/14 00:45:14;;;;;;;8.60;2.10;;;10.80;99.90;;;;;;5034045;28;20053;-62
2024/03/14 00:47:41;;;;;;;7.40;2.47;;;10.80;99.90;;;;;;5035400;28;20048;-62
2024/03/14 00:50:08;;;;;;;8.20;2.25;;;10.80;99.90;;;;;;5035245;28;20037;-62
2024/03/14 00:52:40;;;;;;;8.85;2.75;;;10.80;99.90;;;;;;5035435;28;20041;-63
2024/03/14 00:55:07;;;;;;;14.35;2.42;;;10.80;99.90;;;;;;5035207;28;20445;-63
2024/03/14 00:57:34;;;;;;;9.85;2.65;;;10.70;99.90;;;;;;5035103;28;20049;-63
2024/03/14 01:00:01;;;;;;;9.35;2.83;;;10.70;99.90;;;;;;5035426;28;20483;-62
2024/03/14 01:02:27;;;;;;;10.95;2.22;;;10.70;99.90;;;;;;5035410;28;20430;-63
2024/03/14 01:04:54;;;;;;;8.07;2.47;;;10.70;99.90;;;;;;5034860;28;20037;-63
2024/03/14 01:07:23;;;;;;;9.82;2.22;;;10.70;99.90;;;;;;5034522;28;20033;-63
2024/03/14 01:09:50;;;;;;;8.90;2.47;;;10.70;99.90;;;;;;5035113;28;20079;-63
2024/03/14 01:12:16;;;;;;;7.15;2.35;;;10.70;99.90;;;;;;5034522;28;20467;-63
2024/03/14 01:14:46;;;;;;;15.82;2.97;;;10.60;99.90;;;;;;5034648;28;20045;-63
2024/03/14 01:17:13;;;;;;;6.57;2.20;;;10.60;99.90;;;;;;5034750;28;20037;-63
2024/03/14 01:19:40;;;;;;;10.30;2.33;;;10.60;99.90;;;;;;5034451;28;20042;-62
2024/03/14 01:22:07;;;;;;;8.55;2.40;;;10.60;99.90;;;;;;5034787;28;20471;-64
2024/03/14 01:24:35;;;;;;;9.05;2.55;;;10.50;99.90;;;;;;5035035;28;20128;-62
2024/03/14 01:27:01;;;;;;;9.23;2.33;;;10.50;99.90;;;;;;5034407;28;20506;-63
2024/03/14 01:29:29;;;;;;;10.05;2.53;;;10.50;99.90;;;;;;5034475;28;20135;-63
2024/03/14 01:31:55;;;;;;;6.60;2.53;;;10.50;99.90;;;;;;5034570;28;20099;-64
2024/03/14 01:34:22;;;;;;;6.47;2.30;;;10.50;99.90;;;;;;5034540;28;20048;-64
2024/03/14 01:36:49;;;;;;;7.28;2.47;;;10.40;99.90;;;;;;5034155;28;20037;-63
2024/03/14 01:39:16;;;;;;;7.80;2.67;;;10.40;99.90;;;;;;5033445;28;20088;-63
2024/03/14 01:41:43;;;;;;;10.50;2.33;;;10.40;99.90;;;;;;5034616;28;20039;-63
2024/03/14 01:44:10;;;;;;;9.93;2.60;;;10.30;99.90;;;;;;5034378;28;20125;-63
2024/03/14 01:46:39;;;;;;;7.68;2.50;;;10.40;99.90;;;;;;5034157;28;20422;-64
2024/03/14 01:49:06;;;;;;;7.60;2.47;;;10.30;99.90;;;;;;5034017;28;20052;-63
2024/03/14 01:51:34;;;;;;;8.55;3.03;;;10.30;99.90;;;;;;5034175;28;20087;-64
2024/03/14 01:54:01;;;;;;;7.88;2.70;;;10.30;99.90;;;;;;5033932;28;20052;-63
2024/03/14 01:56:28;;;;;;;9.25;2.85;;;10.30;99.90;;;;;;5034203;28;20042;-63
2024/03/14 01:58:55;;;;;;;8.90;2.35;;;10.30;99.90;;;;;;5033910;28;20072;-63
2024/03/14 02:01:21;;;;;;;6.95;2.17;;;10.30;99.90;;;;;;5033637;28;20055;-63
2024/03/14 02:03:49;;;;;;;6.40;2.25;;;10.30;99.90;;;;;;5033712;28;20052;-63
2024/03/14 02:06:16;;;;;;;6.90;2.35;;;10.20;99.90;;;;;;5032286;28;20490;-63
2024/03/14 02:08:44;;;;;;;12.25;2.38;;;10.30;99.90;;;;;;5033856;28;20079;-63
2024/03/14 02:11:12;;;;;;;6.95;2.10;;;10.20;99.90;;;;;;5033652;28;20043;-63
2024/03/14 02:13:39;;;;;;;7.40;2.55;;;10.20;99.90;;;;;;5033717;28;20041;-63
2024/03/14 02:16:06;;;;;;;5.38;1.98;;;10.20;99.90;;;;;;5033280;28;20057;-64
2024/03/14 02:18:33;;;;;;;9.10;2.40;;;10.20;99.90;;;;;;5033500;28;20116;-64
2024/03/14 02:21:00;;;;;;;8.13;2.20;;;10.20;99.90;;;;;;5033324;28;20493;-63
2024/03/14 02:23:26;;;;;;;6.18;2.25;;;10.20;99.90;;;;;;5032284;28;20418;-63
2024/03/14 02:25:54;;;;;;;10.60;2.97;;;10.20;99.90;;;;;;5033322;28;20046;-63
2024/03/14 02:28:22;;;;;;;6.68;1.98;;;10.10;99.90;;;;;;5033384;28;20489;-63
2024/03/14 02:30:49;;;;;;;8.93;2.20;;;10.10;99.90;;;;;;5033462;28;20041;-63
2024/03/14 02:33:15;;;;;;;9.18;2.03;;;10.10;99.90;;;;;;5033559;28;20046;-63
2024/03/14 02:35:42;;;;;;;6.60;1.92;;;10.00;99.90;;;;;;5033109;28;20171;-63
2024/03/14 02:38:09;;;;;;;5.90;2.00;;;10.00;99.90;;;;;;5033228;28;20052;-63
2024/03/14 02:40:36;;;;;;;8.02;1.90;;;10.00;99.90;;;;;;5033357;28;20049;-63
2024/03/14 02:43:02;;;;;;;5.45;2.05;;;10.00;99.90;;;;;;5033207;28;20069;-63
2024/03/14 02:45:29;;;;;;;8.45;2.22;;;9.90;99.90;;;;;;5033114;28;20041;-63
2024/03/14 02:47:56;;;;;;;6.07;2.10;;;9.90;99.90;;;;;;5033882;28;20136;-63
2024/03/14 02:50:24;;;;;;;6.38;1.67;;;9.90;99.90;;;;;;5033770;28;20033;-63
2024/03/14 02:52:51;;;;;;;4.35;1.70;;;9.90;99.90;;;;;;5032448;28;20128;-63
2024/03/14 02:55:17;;;;;;;9.15;1.92;;;9.90;99.90;;;;;;5032174;28;20041;-63
2024/03/14 02:57:44;;;;;;;5.53;2.00;;;9.80;99.90;;;;;;5033898;28;20103;-63
2024/03/14 03:00:16;;;;;;;4.95;2.00;;;9.80;99.90;;;;;;5033785;28;20045;-63
2024/03/14 03:02:44;;;;;;;5.97;2.38;;;9.80;99.90;;;;;;5033475;28;20064;-63
2024/03/14 03:05:10;;;;;;;5.95;1.75;;;9.80;99.90;;;;;;5033555;28;20049;-63
2024/03/14 03:07:37;;;;;;;8.68;2.00;;;9.80;99.90;;;;;;5033617;28;20467;-63
2024/03/14 03:10:06;;;;;;;9.75;1.90;;;9.80;99.90;;;;;;5033515;28;20038;-63
2024/03/14 03:12:38;;;;;;;4.88;1.60;;;9.80;99.90;;;;;;5033943;28;20041;-63
2024/03/14 03:15:06;;;;;;;7.68;1.98;;;9.80;99.90;;;;;;5033542;28;20108;-63
2024/03/14 03:17:33;;;;;;;6.47;1.88;;;9.70;99.90;;;;;;5033524;28;20045;-63
2024/03/14 03:20:11;;;;;;;11.43;1.85;;;9.70;99.90;;;;;;5033617;28;20041;-63
2024/03/14 03:25:24;;;;;;;6.68;2.20;;;9.70;99.90;;;;;;5032306;28;20493;-63
2024/03/14 03:27:50;;;;;;;7.78;1.85;;;9.70;99.90;;;;;;5032011;28;20049;-63
2024/03/14 03:30:17;;;;;;;6.78;1.92;;;9.70;99.90;;;;;;5032985;28;20099;-63
2024/03/14 03:32:44;;;;;;;6.70;2.00;;;9.70;99.90;;;;;;5033371;28;20042;-63
2024/03/14 03:35:11;;;;;;;7.97;1.83;;;9.70;99.90;;;;;;5033387;28;20486;-63
2024/03/14 03:37:38;;;;;;;6.07;1.88;;;9.60;99.90;;;;;;5033192;28;20037;-63
2024/03/14 03:40:14;;;;;;;8.43;2.15;;;9.60;99.90;;;;;;5033226;28;20047;-63
2024/03/14 03:42:47;;;;;;;10.15;2.40;;;9.60;99.90;;;;;;5033313;28;20045;-63
2024/03/14 03:45:14;;;;;;;6.53;2.15;;;9.60;99.90;;;;;;5032825;28;20042;-63
2024/03/14 03:47:45;;;;;;;7.35;2.28;;;9.60;99.90;;;;;;5033300;28;20044;-63
2024/03/14 03:50:12;;;;;;;9.00;1.98;;;9.60;99.90;;;;;;5032962;28;20128;-63
2024/03/14 03:52:39;;;;;;;5.53;2.00;;;9.60;99.90;;;;;;5033323;28;20471;-63
2024/03/14 03:55:06;;;;;;;7.85;2.30;;;9.50;99.90;;;;;;5032915;28;20042;-63
2024/03/14 03:57:33;;;;;;;7.57;2.25;;;9.50;99.90;;;;;;5033195;28;20040;-63
2024/03/14 04:00:00;;;;;;;9.40;2.33;;;9.50;99.90;;;;;;5032984;28;20129;-63
2024/03/14 04:02:30;;;;;;;8.82;2.50;;;9.50;99.90;;;;;;5035114;28;20099;-63
2024/03/14 04:04:57;;;;;;;6.63;2.28;;;9.50;99.90;;;;;;5036799;28;20052;-65
2024/03/14 04:07:26;;;;;;;10.52;2.22;;;9.50;99.90;;;;;;5036549;28;20494;-63
2024/03/14 04:09:53;;;;;;;6.47;1.98;;;9.50;99.90;;;;;;5036646;28;20437;-63
2024/03/14 04:12:19;;;;;;;7.05;2.00;;;9.50;99.90;;;;;;5036572;28;20033;-63
2024/03/14 04:14:46;;;;;;;7.72;1.95;;;9.50;99.90;;;;;;5036338;28;20331;-63
2024/03/14 04:17:14;;;;;;;7.70;2.28;;;9.50;99.90;;;;;;5036193;28;20045;-63
2024/03/14 04:19:45;;;;;;;8.40;2.20;;;9.50;99.90;;;;;;5036413;28;20056;-63
2024/03/14 04:22:14;;;;;;;10.02;1.98;;;9.50;99.90;;;;;;5036694;28;20147;-63
2024/03/14 04:24:41;;;;;;;7.43;1.90;;;9.50;99.90;;;;;;5036624;28;20107;-63
2024/03/14 04:27:10;;;;;;;6.53;1.80;;;9.50;99.90;;;;;;5036063;28;20368;-63
2024/03/14 04:29:36;;;;;;;6.90;1.65;;;9.50;99.90;;;;;;5036492;28;20034;-63
2024/03/14 04:32:03;;;;;;;6.38;1.70;;;9.50;99.90;;;;;;5036103;28;20056;-63
2024/03/14 04:34:30;;;;;;;6.50;2.20;;;9.50;99.90;;;;;;5036180;28;20038;-63
2024/03/14 04:36:57;;;;;;;8.02;2.05;;;9.50;99.90;;;;;;5036092;28;20120;-63
2024/03/14 04:39:23;;;;;;;6.05;1.85;;;9.50;99.90;;;;;;5036107;28;20046;-63
2024/03/14 04:41:52;;;;;;;7.65;1.75;;;9.40;99.90;;;;;;5035943;28;20045;-63
2024/03/14 04:44:20;;;;;;;7.03;1.80;;;9.40;99.90;;;;;;5034580;28;20045;-63
2024/03/14 04:46:47;;;;;;;9.38;2.08;;;9.40;99.90;;;;;;5036304;28;20041;-63
2024/03/14 04:49:13;;;;;;;6.50;2.00;;;9.40;99.90;;;;;;5035793;28;20128;-63
2024/03/14 04:51:46;;;;;;;6.15;2.08;;;9.40;99.90;;;;;;5035950;28;20057;-63
2024/03/14 04:54:14;;;;;;;5.18;1.90;;;9.40;99.90;;;;;;5035747;28;20577;-63
2024/03/14 04:56:41;;;;;;;7.40;2.03;;;9.30;99.90;;;;;;5034274;28;20038;-63
2024/03/14 04:59:12;;;;;;;7.95;2.20;;;9.30;99.90;;;;;;5035918;28;20045;-63
2024/03/14 05:01:39;;;;;;;8.60;2.45;;;9.30;99.90;;;;;;5035963;28;20049;-63
2024/03/14 05:04:06;;;;;;;4.97;2.05;;;9.30;99.90;;;;;;5035713;28;20080;-63
2024/03/14 05:06:36;;;;;;;6.93;1.85;;;9.30;99.90;;;;;;5035536;28;20055;-63
2024/03/14 05:09:04;;;;;;;5.53;2.05;;;9.30;99.90;;;;;;5035381;28;20044;-63
2024/03/14 05:11:31;;;;;;;6.20;2.50;;;9.30;99.90;;;;;;5035618;28;20069;-63
2024/03/14 05:13:58;;;;;;;6.38;1.90;;;9.30;99.90;;;;;;5035418;28;20041;-63
2024/03/14 05:16:26;;;;;;;6.88;2.65;;;9.30;99.90;;;;;;5035069;28;20065;-63
2024/03/14 05:18:53;;;;;;;6.80;2.40;;;9.20;99.90;;;;;;5035361;28;20042;-63
2024/03/14 05:21:19;;;;;;;10.25;3.00;;;9.20;99.90;;;;;;5035460;28;20047;-63
2024/03/14 05:23:46;;;;;;;11.45;3.25;;;9.20;99.90;;;;;;5035455;28;20045;-63
2024/03/14 05:26:13;;;;;;;6.20;2.83;;;9.20;99.90;;;;;;5035541;28;20368;-63
2024/03/14 05:28:41;;;;;;;8.68;2.90;;;9.20;99.90;;;;;;5033910;28;20388;-63
2024/03/14 05:31:08;;;;;;;11.60;3.42;;;9.20;99.90;;;;;;5035276;28;20065;-63
2024/03/14 05:33:35;;;;;;;11.88;3.60;;;9.20;99.90;;;;;;5034873;28;20383;-63
2024/03/14 05:36:03;;;;;;;14.63;4.10;;;9.20;99.90;;;;;;5033898;28;20378;-63
2024/03/14 05:38:29;;;;;;;11.45;3.85;;;9.20;99.90;;;;;;5034919;28;20037;-63
2024/03/14 05:40:58;;;;;;;10.80;4.20;;;9.20;99.90;;;;;;5034844;28;20474;-63
2024/03/14 05:43:25;;;;;;;11.10;4.50;;;9.20;99.90;;;;;;5034767;28;20470;-63
2024/03/14 05:45:52;;;;;;;9.50;4.65;;;9.20;99.90;;;;;;5034656;28;20080;-63
2024/03/14 05:48:22;;;;;;;12.85;4.78;;;9.20;99.90;;;;;;5034655;28;20107;-63
2024/03/14 05:50:50;;;;;;;13.93;4.90;;;9.20;99.90;;;;;;5034825;28;20041;-63
2024/03/14 05:53:16;;;;;;;8.50;4.38;;;9.20;99.90;;;;;;5034671;28;20471;-63
2024/03/14 05:55:43;;;;;;;12.23;5.82;;;9.20;99.90;;;;;;5034470;28;20044;-63
2024/03/14 05:58:13;;;;;;;12.60;5.28;;;9.20;99.90;;;;;;5034600;28;20041;-64
2024/03/14 06:00:41;;;;;;;12.07;5.05;;;9.20;99.90;;;;;;5034886;28;20051;-63
2024/03/14 06:03:08;;;;;;;10.02;5.43;;;9.20;99.90;;;;;;5034794;28;20057;-63
2024/03/14 06:05:35;;;;;;;10.00;5.63;;;9.20;99.90;;;;;;5034622;28;20055;-63
2024/03/14 06:08:02;;;;;;;9.15;5.75;;;9.20;99.90;;;;;;5034685;28;20041;-63
2024/03/14 06:10:28;;;;;;;14.48;5.50;;;9.20;99.90;;;;;;5034155;28;20049;-63
2024/03/14 06:12:55;;;;;;;13.32;5.57;;;9.20;99.90;;;;;;5033259;28;20120;-63
2024/03/14 06:15:22;;;;;;;10.68;6.30;;;9.20;99.90;;;;;;5033907;28;20057;-63
2024/03/14 06:17:50;;;;;;;14.75;6.50;;;9.20;99.90;;;;;;5033938;28;20037;-63
2024/03/14 06:20:18;;;;;;;16.25;6.72;;;9.20;99.90;;;;;;5034244;28;20061;-63
2024/03/14 06:22:45;;;;;;;12.70;6.30;;;9.20;99.90;;;;;;5033308;28;20053;-63
2024/03/14 06:25:12;;;;;;;15.23;6.97;;;9.20;99.90;;;;;;5032347;28;20041;-63
2024/03/14 06:27:39;;;;;;;15.25;7.18;;;9.20;99.90;;;;;;5033931;28;20053;-63
2024/03/14 06:30:09;;;;;;;13.50;7.65;;;9.20;99.90;;;;;;5034231;28;20037;-63
2024/03/14 06:32:39;;;;;;;16.80;7.35;;;9.20;99.90;;;;;;5034232;28;20038;-64
2024/03/14 06:35:09;;;;;;;12.70;8.85;;;9.20;99.90;;;;;;5033596;28;20049;-63
2024/03/14 06:37:36;;;;;;;11.63;7.72;;;9.30;99.90;;;;;;5034029;28;20037;-63
2024/03/14 06:40:05;;;;;;;13.77;8.02;;;9.30;99.90;;;;;;5033791;28;20107;-63
2024/03/14 06:42:32;;;;;;;14.98;8.40;;;9.30;99.90;;;;;;5033770;28;20056;-63
2024/03/14 06:45:02;;;;;;;14.43;8.73;;;9.30;99.90;;;;;;5033871;28;20053;-63
2024/03/14 06:47:30;;;;;;;13.73;7.80;;;9.30;99.90;;;;;;5033824;28;20037;-63
2024/03/14 06:50:00;;;;;;;13.13;8.27;;;9.30;99.90;;;;;;5033824;28;20038;-63
2024/03/14 06:52:27;;;;;;;15.30;7.95;;;9.40;99.90;;;;;;5032485;28;20092;-63
2024/03/14 06:54:54;;;;;;;10.23;7.63;;;9.40;99.90;;;;;;5033720;28;20042;-64
2024/03/14 06:57:21;;;;;;;16.38;8.45;;;9.40;99.90;;;;;;5033447;28;20033;-63
2024/03/14 06:59:52;;;;;;;15.75;8.20;;;9.40;99.90;;;;;;5033539;28;20120;-63
2024/03/14 07:02:19;;;;;;;12.38;7.47;;;9.40;99.90;;;;;;5032262;28;20088;-64
2024/03/14 07:04:47;;;;;;;15.55;8.10;;;9.40;99.90;;;;;;5032494;28;20471;-64
2024/03/14 07:07:16;;;;;;;14.38;8.07;;;9.50;99.90;;;;;;5033508;28;20121;-64
2024/03/14 07:09:45;;;;;;;13.15;8.23;;;9.50;99.90;;;;;;5033340;28;20046;-63
2024/03/14 07:12:12;;;;;;;14.30;8.07;;;9.50;99.90;;;;;;5033546;28;20061;-63
2024/03/14 07:14:39;;;;;;;16.40;8.40;;;9.50;99.90;;;;;;5033693;28;20048;-63
2024/03/14 07:17:06;;;;;;;15.55;8.05;;;9.60;99.90;;;;;;5033190;28;20060;-64
2024/03/14 07:19:35;;;;;;;14.15;7.25;;;9.60;99.90;;;;;;5033679;28;20116;-64
2024/03/14 07:22:03;;;;;;;11.98;6.53;;;9.60;99.90;;;;;;5033347;28;20049;-63
2024/03/14 07:24:29;;;;;;;12.45;6.50;;;9.70;99.90;;;;;;5033314;28;20052;-64
2024/03/14 07:26:58;;;;;;;13.48;7.05;;;9.80;99.90;;;;;;5033071;28;20061;-64
2024/03/14 07:29:25;;;;;;;14.73;7.03;;;9.80;99.90;;;;;;5033194;28;20041;-64
2024/03/14 07:31:53;;;;;;;13.82;6.60;;;9.80;99.90;;;;;;5033379;28;20102;-63
2024/03/14 07:34:21;;;;;;;14.50;6.30;;;9.90;99.90;;;;;;5033424;28;20553;-64
2024/03/14 07:36:48;;;;;;;12.40;6.57;;;9.90;99.90;;;;;;5034572;28;20038;-64
2024/03/14 07:39:15;;;;;;;15.30;7.25;;;10.00;99.90;;;;;;5037204;28;20120;-64
2024/03/14 07:41:42;;;;;;;10.82;5.90;;;10.00;99.90;;;;;;5037104;28;20073;-64
2024/03/14 07:44:09;;;;;;;11.07;5.65;;;10.00;99.90;;;;;;5037235;28;20064;-63
2024/03/14 07:46:52;;;;;;;10.75;5.68;;;10.00;99.90;;;;;;5037279;28;20037;-64
2024/03/14 07:49:19;;;;;;;9.07;4.80;;;10.00;99.90;;;;;;5037017;28;20040;-63
2024/03/14 07:51:45;;;;;;;8.10;4.53;;;10.10;99.90;;;;;;5036826;28;20037;-63
2024/03/14 07:54:14;;;;;;;9.07;4.80;;;10.10;99.90;;;;;;5037003;28;20382;-64
2024/03/14 07:56:43;;;;;;;11.00;4.55;;;10.20;99.90;;;;;;5036448;28;20095;-63
2024/03/14 07:59:10;;;;;;;9.55;4.97;;;10.20;99.90;;;;;;5036961;28;20079;-63
2024/03/14 08:01:37;;;;;;;12.35;4.75;;;10.30;99.90;;;;;;5037130;28;20096;-63
2024/03/14 08:04:04;;;;;;;9.07;4.22;;;10.30;99.90;;;;;;5037144;28;20073;-63
2024/03/14 08:06:39;;;;;;;12.50;3.83;;;10.40;99.90;;;;;;5036810;28;20103;-62
2024/03/14 08:09:07;;;;;;;8.13;3.63;;;10.40;99.90;;;;;;5035737;28;20037;-63
2024/03/14 08:11:35;;;;;;;8.90;4.32;;;10.40;99.90;;;;;;5035417;28;20042;-62
2024/03/14 08:14:06;;;;;;;12.57;4.80;;;10.50;99.90;;;;;;5036660;28;20061;-62
2024/03/14 08:16:33;;;;;;;8.23;3.85;;;10.50;99.90;;;;;;5036264;28;20121;-62
2024/03/14 08:19:00;;;;;;;6.85;3.35;;;10.60;99.90;;;;;;5036590;28;20049;-61
2024/03/14 08:21:29;;;;;;;9.98;3.50;;;10.60;99.90;;;;;;5036458;28;20060;-62
2024/03/14 08:24:09;;;;;;;9.43;4.00;;;10.70;99.90;;;;;;5035212;28;20506;-61
2024/03/14 08:26:37;;;;;;;7.90;3.08;;;10.70;99.90;;;;;;5036448;28;20112;-61
2024/03/14 08:29:04;;;;;;;6.63;3.15;;;10.80;99.90;;;;;;5036142;28;20045;-62
2024/03/14 08:31:31;;;;;;;7.90;3.10;;;10.90;99.90;;;;;;5035853;28;20041;-62
2024/03/14 08:33:58;;;;;;;9.70;3.70;;;10.90;99.90;;;;;;5035934;28;20099;-62
2024/03/14 08:36:27;;;;;;;8.93;3.33;;;11.00;99.90;;;;;;5035925;28;20036;-62
2024/03/14 08:38:54;;;;;;;10.80;3.78;;;11.10;99.90;;;;;;5035863;28;20434;-62
2024/03/14 08:41:21;;;;;;;8.27;3.67;;;11.10;99.90;;;;;;5035391;28;20065;-66
2024/03/14 08:43:49;;;;;;;11.27;3.53;;;11.20;99.90;;;;;;5033237;28;20046;-66
2024/03/14 08:46:18;;;;;;;9.95;3.60;;;11.20;99.90;;;;;;5035391;28;20041;-66
2024/03/14 08:48:45;;;;;;;9.32;3.35;;;11.20;99.90;;;;;;5034845;28;20044;-63
2024/03/14 08:51:12;;;;;;;7.85;3.28;;;11.30;99.90;;;;;;5035312;28;20041;-65
2024/03/14 08:56:24;;;;;;;7.00;3.20;;;11.40;99.90;;;;;;5034974;28;20061;-65
2024/03/14 08:58:57;;;;;;;9.07;3.58;;;11.40;99.90;;;;;;5035322;28;20041;-65
2024/03/14 09:01:24;;;;;;;7.78;3.50;;;11.50;99.90;;;;;;5034856;28;20490;-65
2024/03/14 09:03:51;;;;;;;14.85;3.17;;;11.50;99.90;;;;;;5035399;28;20048;-66
2024/03/14 09:06:18;;;;;;;9.15;3.35;;;11.50;99.90;;;;;;5035533;28;20061;-65
2024/03/14 09:08:45;;;;;;;9.35;2.78;;;11.60;99.90;;;;;;5035373;28;20459;-66
2024/03/14 09:11:12;;;;;;;9.48;3.05;;;11.70;99.90;;;;;;5035390;28;20037;-66
2024/03/14 09:13:40;;;;;;;6.50;2.25;;;11.70;99.90;;;;;;5035641;28;20482;-66
2024/03/14 09:16:07;;;;;;;8.85;2.80;;;11.70;99.90;;;;;;5035148;28;20100;-65
2024/03/14 09:18:34;;;;;;;7.78;3.08;;;11.80;99.90;;;;;;5035343;28;20432;-65
2024/03/14 09:21:01;;;;;;;6.72;2.42;;;11.90;99.90;;;;;;5035698;28;20045;-65
2024/03/14 09:23:29;;;;;;;11.70;3.17;;;11.90;99.90;;;;;;5035643;28;20378;-66
2024/03/14 09:25:57;;;;;;;6.47;2.55;;;12.00;99.90;;;;;;5035225;28;20538;-65
2024/03/14 09:28:26;;;;;;;6.65;2.40;;;12.10;99.90;;;;;;5035534;28;20125;-65
2024/03/14 09:30:57;;;;;;;6.18;2.25;;;12.10;99.90;;;;;;5035023;28;20037;-65
2024/03/14 09:33:28;;;;;;;9.00;2.80;;;12.10;99.90;;;;;;5035419;28;20110;-66
2024/03/14 09:35:56;;;;;;;6.55;2.80;;;12.20;99.90;;;;;;5035209;28;20796;-66
2024/03/14 09:38:22;;;;;;;8.75;2.85;;;12.20;99.90;;;;;;5035236;28;20038;-65
2024/03/14 09:40:50;;;;;;;6.53;2.83;;;12.20;99.90;;;;;;5035166;28;20133;-65
2024/03/14 09:43:23;;;;;;;8.45;2.53;;;12.20;99.90;;;;;;5034858;28;20052;-65
2024/03/14 09:45:50;;;;;;;6.85;2.80;;;12.30;99.90;;;;;;5034850;28;20379;-65
2024/03/14 09:48:16;;;;;;;10.93;2.75;;;12.30;99.90;;;;;;5034986;28;20091;-65
2024/03/14 09:50:47;;;;;;;7.50;2.50;;;12.30;99.90;;;;;;5034783;28;20038;-65
2024/03/14 09:53:14;;;;;;;7.32;2.50;;;12.30;99.90;;;;;;5035023;28;20517;-66
2024/03/14 09:55:41;;;;;;;10.77;2.75;;;12.40;99.90;;;;;;5033249;28;20041;-65
2024/03/14 09:58:08;;;;;;;8.10;2.80;;;12.40;99.90;;;;;;5033386;28;20096;-65
2024/03/14 10:00:35;;;;;;;7.28;2.53;;;12.40;99.90;;;;;;5033802;28;20356;-66
2024/03/14 10:03:03;;;;;;;8.13;2.70;;;12.40;99.90;;;;;;5034670;28;20069;-65
2024/03/14 10:05:34;;;;;;;5.82;2.58;;;12.50;99.90;;;;;;5032980;28;20399;-66
2024/03/14 10:08:04;;;;;;;6.72;2.63;;;12.50;99.90;;;;;;5034386;28;20141;-65
2024/03/14 10:10:34;;;;;;;8.35;2.55;;;12.60;99.90;;;;;;5034084;28;20143;-66
2024/03/14 10:13:01;;;;;;;6.88;2.40;;;12.70;99.90;;;;;;5034392;28;20034;-66
2024/03/14 10:15:28;;;;;;;7.20;2.60;;;12.70;99.90;;;;;;5034067;28;20065;-65
2024/03/14 10:17:57;;;;;;;14.23;2.95;;;12.80;99.90;;;;;;5034281;28;20526;-66
2024/03/14 10:20:24;;;;;;;10.65;2.55;;;12.80;99.90;;;;;;5034443;28;20041;-66
2024/03/14 10:22:51;;;;;;;7.28;2.38;;;12.90;99.90;;;;;;5034153;28;20037;-66
2024/03/14 10:25:23;;;;;;;9.27;2.38;;;12.90;99.90;;;;;;5033871;28;20045;-65
2024/03/14 10:27:57;;;;;;;7.30;2.38;;;12.90;99.90;;;;;;5034403;28;20128;-66
2024/03/14 10:30:36;;;;;;;9.73;2.90;;;13.00;99.90;;;;;;5034168;28;20049;-65
2024/03/14 10:33:06;;;;;;;7.03;2.60;;;13.00;99.90;;;;;;5034423;28;20497;-66
2024/03/14 10:35:36;;;;;;;5.55;2.35;;;13.00;99.90;;;;;;5034111;28;20088;-65
2024/03/14 10:38:03;;;;;;;7.20;2.42;;;13.10;99.90;;;;;;5034176;28;20037;-65
2024/03/14 10:40:30;;;;;;;4.38;1.95;;;13.10;99.90;;;;;;5034184;28;20080;-65
2024/03/14 10:42:57;;;;;;;6.38;2.83;;;13.20;99.90;;;;;;5034107;28;20053;-65
2024/03/14 10:45:26;;;;;;;16.42;11.25;;;13.20;99.90;;;;;;5033857;28;20383;-65
2024/03/14 10:47:54;;;;;;;7.55;3.40;;;13.30;99.90;;;;;;5034159;28;20559;-66
2024/03/14 10:50:22;;;;;;;9.52;2.65;;;13.40;99.90;;;;;;5033865;28;20471;-65
2024/03/14 10:52:49;;;;;;;5.10;1.70;;;13.50;99.90;;;;;;5033873;28;20386;-62
2024/03/14 10:55:16;;;;;;;6.68;2.88;;;13.50;99.90;;;;;;5033695;28;20041;-62
2024/03/14 10:57:43;;;;;;;10.80;2.88;;;13.60;99.90;;;;;;5033887;28;20041;-62
2024/03/14 11:00:14;;;;;;;8.07;2.60;;;13.60;99.90;;;;;;5033914;28;20049;-62
2024/03/14 11:02:41;;;;;;;8.35;2.65;;;13.70;99.90;;;;;;5033795;28;20046;-62
2024/03/14 11:05:08;;;;;;;12.30;2.50;;;13.70;99.90;;;;;;5033400;28;20376;-62
2024/03/14 11:07:35;;;;;;;7.72;2.53;;;13.80;99.90;;;;;;5033621;28;20089;-62
2024/03/14 11:10:06;;;;;;;8.77;2.50;;;13.90;99.90;;;;;;5033303;28;20044;-62
2024/03/14 11:12:34;;;;;;;7.55;2.10;;;13.90;99.90;;;;;;5033839;28;20108;-62
2024/03/14 11:15:02;;;;;;;9.73;3.10;;;14.00;99.90;;;;;;5033272;28;20471;-62
2024/03/14 11:17:29;;;;;;;10.80;2.40;;;14.00;99.90;;;;;;5033302;28;20037;-62
2024/03/14 11:19:56;;;;;;;9.00;2.33;;;14.10;99.90;;;;;;5033389;28;20038;-62
2024/03/14 11:22:23;;;;;;;8.75;2.70;;;14.10;99.90;;;;;;5033615;28;20048;-62
2024/03/14 11:24:50;;;;;;;8.35;2.45;;;14.20;99.90;;;;;;5033475;28;20486;-62
2024/03/14 11:27:18;;;;;;;10.32;2.17;;;14.30;99.90;;;;;;5033339;28;20107;-62
2024/03/14 11:29:45;;;;;;;5.63;2.20;;;14.30;99.90;;;;;;5033598;28;20073;-62
2024/03/14 11:32:13;;;;;;;6.95;2.10;;;14.40;99.90;;;;;;5033747;28;20057;-62
2024/03/14 11:34:40;;;;;;;10.82;2.55;;;14.40;99.90;;;;;;5033277;28;20040;-62
2024/03/14 11:37:07;;;;;;;7.75;2.47;;;14.40;99.90;;;;;;5033186;28;20046;-62
2024/03/14 11:39:34;;;;;;;8.55;2.35;;;14.40;99.90;;;;;;5033423;28;20088;-62
2024/03/14 11:42:00;;;;;;;8.23;2.47;;;14.50;99.90;;;;;;5033345;28;20034;-64
2024/03/14 11:44:29;;;;;;;8.80;2.17;;;14.50;99.90;;;;;;5033457;28;20045;-65
2024/03/14 11:46:57;;;;;;;6.28;2.42;;;14.60;99.90;;;;;;5033240;28;20108;-65
2024/03/14 11:49:27;;;;;;;8.20;2.30;;;14.60;99.90;;;;;;5033193;28;20464;-66
2024/03/14 11:51:55;;;;;;;10.00;2.10;;;14.60;99.90;;;;;;5033483;28;20049;-66
2024/03/14 11:54:22;;;;;;;6.95;2.35;;;14.60;99.90;;;;;;5033289;28;20057;-65
2024/03/14 11:56:48;;;;;;;7.40;2.25;;;14.70;99.90;;;;;;5033051;28;20037;-65
2024/03/14 11:59:15;;;;;;;5.38;1.88;;;14.80;99.90;;;;;;5033447;28;20533;-65
2024/03/14 12:01:42;;;;;;;6.80;2.25;;;14.80;99.90;;;;;;5033099;28;20585;-65
2024/03/14 12:04:17;;;;;;;6.73;2.27;;;14.80;99.90;;;;;;5033260;28;20479;-64
2024/03/14 12:06:46;;;;;;;8.00;2.17;;;14.90;99.90;;;;;;5033058;28;20108;-66
2024/03/14 12:09:20;;;;;;;6.57;2.00;;;14.90;99.90;;;;;;5033134;28;20057;-65
2024/03/14 12:11:48;;;;;;;6.28;1.83;;;15.00;99.90;;;;;;5032997;28;20065;-64
2024/03/14 12:14:15;;;;;;;7.75;2.33;;;15.00;99.90;;;;;;5033351;28;20042;-65
2024/03/14 12:16:42;;;;;;;6.32;2.25;;;15.10;99.90;;;;;;5032602;28;20050;-64
2024/03/14 12:19:09;;;;;;;6.68;2.40;;;15.10;99.90;;;;;;5032894;28;20048;-65
2024/03/14 12:21:36;;;;;;;7.60;1.95;;;15.10;99.90;;;;;;5033073;28;20045;-64
2024/03/14 12:24:06;;;;;;;5.47;2.15;;;15.20;99.90;;;;;;5036125;28;20068;-64
2024/03/14 12:26:34;;;;;;;8.13;2.75;;;15.10;99.90;;;;;;5036333;28;20366;-65
2024/03/14 12:29:02;;;;;;;6.97;2.42;;;15.10;99.90;;;;;;5036285;28;20372;-64
2024/03/14 12:31:29;;;;;;;7.07;2.40;;;15.10;99.90;;;;;;5036454;28;20038;-65
2024/03/14 12:33:58;;;;;;;10.00;2.70;;;15.10;99.90;;;;;;5036554;28;20046;-65
2024/03/14 12:36:27;;;;;;;6.72;2.20;;;15.10;99.90;;;;;;5036126;28;20402;-64
2024/03/14 12:38:55;;;;;;;5.72;2.15;;;15.20;99.90;;;;;;5036528;28;20044;-65
2024/03/14 12:41:22;;;;;;;7.05;2.50;;;15.30;99.90;;;;;;5033961;28;20045;-63
2024/03/14 12:43:49;;;;;;;9.45;2.78;;;15.50;99.90;;;;;;5016352;28;20045;-63
2024/03/14 12:46:19;;;;;;;4.85;1.77;;;15.60;99.90;;;;;;5031392;28;20462;-62
2024/03/14 12:48:47;;;;;;;9.07;2.47;;;15.70;99.90;;;;;;5016229;28;20046;-63
2024/03/14 12:51:14;;;;;;;6.60;2.35;;;15.80;99.90;;;;;;5016184;28;20141;-62
2024/03/14 12:53:41;;;;;;;7.80;2.55;;;15.80;99.90;;;;;;5016370;28;20042;-62
2024/03/14 12:56:07;;;;;;;8.70;2.30;;;15.90;99.90;;;;;;5015918;28;20368;-62